Time,TemperatureF,DewpointF,PressureIn,WindDirection,WindDirectionDegrees,WindSpeedMPH,WindSpeedGustMPH,Humidity,HourlyPrecipIn,Conditions,Clouds,dailyrainin,SolarRadiationWatts/m^2,SoftwareType,DateUTC
2013-01-31 07:54:00,73.0,68.9,29.85,NE,53,3.0,3.0,87,0.00,,,0.00,176,Wunderground v.1.15,2013-01-30 20:54:00,
2013-01-31 07:59:00,73.4,69.0,29.85,ENE,64,1.0,4.0,86,0.00,,,0.00,183,Wunderground v.1.15,2013-01-30 20:59:00,
2013-01-31 08:04:00,73.8,69.0,29.85,ENE,67,2.0,3.0,85,0.00,,,0.00,227,Wunderground v.1.15,2013-01-30 21:04:00,
2013-01-31 08:09:00,74.1,69.0,29.85,ENE,58,3.0,3.0,84,0.00,,,0.00,220,Wunderground v.1.15,2013-01-30 21:09:00,
2013-01-31 08:14:00,74.4,68.9,29.85,NE,45,3.0,3.0,83,0.00,,,0.00,216,Wunderground v.1.15,2013-01-30 21:14:00,
2013-01-31 08:19:00,74.8,68.9,29.85,NNE,32,2.0,4.0,82,0.00,,,0.00,227,Wunderground v.1.15,2013-01-30 21:19:00,
2013-01-31 08:24:00,75.1,68.9,29.85,ENE,67,2.0,3.0,81,0.00,,,0.00,190,Wunderground v.1.15,2013-01-30 21:24:00,
2013-01-31 08:29:00,75.1,68.9,29.85,ENE,60,3.0,3.0,81,0.00,,,0.00,209,Wunderground v.1.15,2013-01-30 21:29:00,
2013-01-31 08:34:00,75.2,68.6,29.85,ENE,76,3.0,3.0,80,0.00,,,0.00,445,Wunderground v.1.15,2013-01-30 21:34:00,
2013-01-31 08:44:00,76.0,68.6,29.85,North,11,3.0,3.0,78,0.00,,,0.00,141,Wunderground v.1.15,2013-01-30 21:44:00,
2013-01-31 08:49:00,76.3,68.9,29.85,NNE,22,3.0,3.0,78,0.00,,,0.00,260,Wunderground v.1.15,2013-01-30 21:49:00,
2013-01-31 08:54:00,76.7,68.9,29.85,NW,311,3.0,4.0,77,0.00,,,0.00,265,Wunderground v.1.15,2013-01-30 21:54:00,
2013-01-31 08:59:00,76.7,68.9,29.84,ENE,58,3.0,4.0,77,0.00,,,0.00,197,Wunderground v.1.15,2013-01-30 21:59:00,
2013-01-31 09:04:00,76.5,68.7,29.84,North,360,3.0,7.0,77,0.00,,,0.00,281,Wunderground v.1.15,2013-01-30 22:04:00,
2013-01-31 09:14:00,78.5,69.5,29.84,NE,42,2.0,2.0,74,0.00,,,0.00,788,Wunderground v.1.15,2013-01-30 22:14:00,
2013-01-31 09:19:00,79.3,69.9,29.84,NW,326,2.0,2.0,73,0.00,,,0.00,278,Wunderground v.1.15,2013-01-30 22:19:00,
2013-01-31 09:24:00,79.1,69.7,29.84,NE,40,2.0,3.0,73,0.00,,,0.00,220,Wunderground v.1.15,2013-01-30 22:24:00,
2013-01-31 09:29:00,78.2,68.8,29.84,NNE,32,2.0,4.0,73,0.00,,,0.00,221,Wunderground v.1.15,2013-01-30 22:29:00,
2013-01-31 09:34:00,77.6,69.0,29.84,NNW,329,3.0,3.0,75,0.00,,,0.00,714,Wunderground v.1.15,2013-01-30 22:34:00,
2013-01-31 09:39:00,79.9,70.5,29.84,North,360,3.0,3.0,73,0.00,,,0.00,719,Wunderground v.1.15,2013-01-30 22:39:00,
2013-01-31 09:49:00,79.5,69.3,29.84,NE,38,4.0,5.0,71,0.00,,,0.00,754,Wunderground v.1.15,2013-01-30 22:49:00,
2013-01-31 09:54:00,79.9,69.7,29.84,NNE,30,3.0,3.0,71,0.00,,,0.00,911,Wunderground v.1.15,2013-01-30 22:54:00,
2013-01-31 09:59:00,80.1,69.8,29.84,NNW,345,3.0,3.0,71,0.00,,,0.00,533,Wunderground v.1.15,2013-01-30 22:59:00,
2013-01-31 10:04:00,80.3,69.6,29.84,North,351,3.0,3.0,70,0.00,,,0.00,431,Wunderground v.1.15,2013-01-30 23:04:00,
2013-01-31 10:09:00,80.5,70.2,29.84,North,5,3.0,3.0,71,0.00,,,0.00,388,Wunderground v.1.15,2013-01-30 23:09:00,
2013-01-31 10:19:00,80.2,69.9,29.83,North,350,3.0,3.0,71,0.00,,,0.00,313,Wunderground v.1.15,2013-01-30 23:19:00,
2013-01-31 10:24:00,80.6,70.3,29.83,ENE,76,3.0,3.0,71,0.00,,,0.00,821,Wunderground v.1.15,2013-01-30 23:24:00,
2013-01-31 10:29:00,81.1,70.4,29.83,NNW,340,3.0,4.0,70,0.00,,,0.00,944,Wunderground v.1.15,2013-01-30 23:29:00,
2013-01-31 10:39:00,80.3,70.0,29.83,NNW,340,4.0,5.0,71,0.00,,,0.00,371,Wunderground v.1.15,2013-01-30 23:39:00,
2013-01-31 10:44:00,80.1,70.3,29.83,NW,315,4.0,4.0,72,0.00,,,0.00,489,Wunderground v.1.15,2013-01-30 23:44:00,
2013-01-31 10:49:00,80.6,70.3,29.83,NW,315,3.0,4.0,71,0.00,,,0.00,397,Wunderground v.1.15,2013-01-30 23:49:00,
2013-01-31 10:54:00,80.2,69.5,29.83,NNW,336,4.0,4.0,70,0.00,,,0.00,329,Wunderground v.1.15,2013-01-30 23:54:00,
2013-01-31 11:04:00,82.3,70.2,29.82,North,10,4.0,4.0,67,0.00,,,0.00,1034,Wunderground v.1.15,2013-01-31 00:04:00,
2013-01-31 11:09:00,83.0,70.9,29.82,NW,313,3.0,4.0,67,0.00,,,0.00,1016,Wunderground v.1.15,2013-01-31 00:09:00,
2013-01-31 11:19:00,82.8,70.3,29.82,NNE,21,3.0,5.0,66,0.00,,,0.00,262,Wunderground v.1.15,2013-01-31 00:19:00,
2013-01-31 11:24:00,82.7,70.6,29.82,WNW,302,3.0,3.0,67,0.00,,,0.00,345,Wunderground v.1.15,2013-01-31 00:24:00,
2013-01-31 11:29:00,82.3,69.4,29.81,North,5,3.0,3.0,65,0.00,,,0.00,383,Wunderground v.1.15,2013-01-31 00:29:00,
2013-01-31 11:34:00,80.8,69.7,29.81,NNE,17,3.0,3.0,69,0.00,,,0.00,262,Wunderground v.1.15,2013-01-31 00:34:00,
2013-01-31 11:44:00,83.5,70.5,29.81,North,5,3.0,3.0,65,0.00,,,0.00,540,Wunderground v.1.15,2013-01-31 00:44:00,
2013-01-31 11:49:00,81.7,69.2,29.81,NNW,331,3.0,3.0,66,0.00,,,0.00,388,Wunderground v.1.15,2013-01-31 00:49:00,
2013-01-31 11:54:00,82.8,69.8,29.80,NW,326,4.0,4.0,65,0.00,,,0.00,963,Wunderground v.1.15,2013-01-31 00:54:00,
2013-01-31 12:04:00,84.8,70.8,29.80,North,360,3.0,6.0,63,0.00,,,0.00,997,Wunderground v.1.15,2013-01-31 01:04:00,
2013-01-31 12:14:00,85.7,70.7,29.80,NNE,28,2.0,2.0,61,0.00,,,0.00,1002,Wunderground v.1.15,2013-01-31 01:14:00,
2013-01-31 12:19:00,86.7,71.6,29.79,NNW,343,2.0,2.0,61,0.00,,,0.00,1042,Wunderground v.1.15,2013-01-31 01:19:00,
2013-01-31 12:24:00,86.6,70.6,29.79,North,360,2.0,2.0,59,0.00,,,0.00,1071,Wunderground v.1.15,2013-01-31 01:24:00,
2013-01-31 12:34:00,85.4,70.4,29.79,NW,321,3.0,3.0,61,0.00,,,0.00,1020,Wunderground v.1.15,2013-01-31 01:34:00,
2013-01-31 12:39:00,86.1,70.6,29.79,NW,325,3.0,3.0,60,0.00,,,0.00,1014,Wunderground v.1.15,2013-01-31 01:39:00,
2013-01-31 12:44:00,87.5,70.9,29.78,WSW,239,2.0,2.0,58,0.00,,,0.00,1027,Wunderground v.1.15,2013-01-31 01:44:00,
2013-01-31 12:49:00,86.3,71.7,29.78,East,97,2.0,6.0,62,0.00,,,0.00,1055,Wunderground v.1.15,2013-01-31 01:49:00,
2013-01-31 12:59:00,84.6,71.1,29.77,ENE,59,3.0,5.0,64,0.00,,,0.00,1069,Wunderground v.1.15,2013-01-31 01:59:00,
2013-01-31 13:09:00,84.8,71.3,29.77,NE,43,4.0,4.0,64,0.00,,,0.00,1034,Wunderground v.1.15,2013-01-31 02:09:00,
2013-01-31 13:14:00,85.4,71.8,29.77,SSW,202,3.0,3.0,64,0.00,,,0.00,1039,Wunderground v.1.15,2013-01-31 02:14:00,
2013-01-31 13:19:00,84.5,71.4,29.76,ESE,109,3.0,3.0,65,0.00,,,0.00,1078,Wunderground v.1.15,2013-01-31 02:19:00,
2013-01-31 13:24:00,83.9,71.8,29.76,East,85,3.0,3.0,67,0.00,,,0.00,1078,Wunderground v.1.15,2013-01-31 02:24:00,
2013-01-31 13:34:00,86.2,72.1,29.75,North,355,2.0,3.0,63,0.00,,,0.00,1030,Wunderground v.1.15,2013-01-31 02:34:00,
2013-01-31 13:39:00,85.5,71.9,29.75,ENE,64,3.0,3.0,64,0.00,,,0.00,1018,Wunderground v.1.15,2013-01-31 02:39:00,
2013-01-31 13:44:00,85.1,72.0,29.75,East,98,3.0,3.0,65,0.00,,,0.00,1018,Wunderground v.1.15,2013-01-31 02:44:00,
2013-01-31 13:54:00,85.3,71.7,29.74,East,81,4.0,7.0,64,0.00,,,0.00,1099,Wunderground v.1.15,2013-01-31 02:54:00,
2013-01-31 13:59:00,84.7,71.6,29.74,SSE,149,4.0,7.0,65,0.00,,,0.00,1028,Wunderground v.1.15,2013-01-31 02:59:00,
2013-01-31 14:09:00,85.9,72.3,29.74,ENE,78,3.0,4.0,64,0.00,,,0.00,990,Wunderground v.1.15,2013-01-31 03:09:00,
2013-01-31 14:14:00,86.2,73.0,29.74,NE,56,2.0,6.0,65,0.00,,,0.00,979,Wunderground v.1.15,2013-01-31 03:14:00,
2013-01-31 14:19:00,86.0,72.4,29.73,East,94,3.0,8.0,64,0.00,,,0.00,965,Wunderground v.1.15,2013-01-31 03:19:00,
2013-01-31 14:29:00,84.5,71.4,29.73,ENE,73,4.0,4.0,65,0.00,,,0.00,954,Wunderground v.1.15,2013-01-31 03:29:00,
2013-01-31 14:34:00,84.7,72.1,29.73,North,5,4.0,4.0,66,0.00,,,0.00,944,Wunderground v.1.15,2013-01-31 03:34:00,
2013-01-31 14:39:00,85.5,71.9,29.72,East,79,5.0,6.0,64,0.00,,,0.00,937,Wunderground v.1.15,2013-01-31 03:39:00,
2013-01-31 14:44:00,84.0,71.9,29.72,East,83,5.0,6.0,67,0.00,,,0.00,926,Wunderground v.1.15,2013-01-31 03:44:00,
2013-01-31 14:54:00,83.7,71.6,29.72,NNW,327,6.0,6.0,67,0.00,,,0.00,912,Wunderground v.1.15,2013-01-31 03:54:00,
2013-01-31 14:59:00,84.9,72.3,29.72,NNE,16,4.0,6.0,66,0.00,,,0.00,896,Wunderground v.1.15,2013-01-31 03:59:00,
2013-01-31 15:09:00,84.4,72.2,29.71,NE,51,5.0,6.0,67,0.00,,,0.00,879,Wunderground v.1.15,2013-01-31 04:09:00,
2013-01-31 15:14:00,84.8,71.7,29.71,NE,50,4.0,5.0,65,0.00,,,0.00,865,Wunderground v.1.15,2013-01-31 04:14:00,
2013-01-31 15:19:00,84.7,72.5,29.71,North,355,4.0,5.0,67,0.00,,,0.00,854,Wunderground v.1.15,2013-01-31 04:19:00,
2013-01-31 15:29:00,84.5,71.9,29.70,WNW,286,4.0,4.0,66,0.00,,,0.00,828,Wunderground v.1.15,2013-01-31 04:29:00,
2013-01-31 15:34:00,83.9,71.8,29.70,ENE,72,4.0,8.0,67,0.00,,,0.00,807,Wunderground v.1.15,2013-01-31 04:34:00,
2013-01-31 15:39:00,83.7,71.6,29.70,East,96,5.0,8.0,67,0.00,,,0.00,800,Wunderground v.1.15,2013-01-31 04:39:00,
2013-01-31 15:49:00,84.4,72.2,29.69,SSE,158,5.0,5.0,67,0.00,,,0.00,773,Wunderground v.1.15,2013-01-31 04:49:00,
2013-01-31 15:54:00,83.6,71.5,29.69,North,10,4.0,4.0,67,0.00,,,0.00,759,Wunderground v.1.15,2013-01-31 04:54:00,
2013-01-31 15:59:00,84.6,72.0,29.69,East,80,5.0,7.0,66,0.00,,,0.00,749,Wunderground v.1.15,2013-01-31 04:59:00,
2013-01-31 16:04:00,83.9,71.8,29.69,NE,55,5.0,7.0,67,0.00,,,0.00,729,Wunderground v.1.15,2013-01-31 05:04:00,
2013-01-31 16:09:00,83.7,72.0,29.68,ENE,74,5.0,7.0,68,0.00,,,0.00,715,Wunderground v.1.15,2013-01-31 05:09:00,
2013-01-31 16:14:00,83.5,71.8,29.68,NE,46,5.0,5.0,68,0.00,,,0.00,700,Wunderground v.1.15,2013-01-31 05:14:00,
2013-01-31 16:24:00,83.0,71.3,29.68,ENE,74,4.0,4.0,68,0.00,,,0.00,673,Wunderground v.1.15,2013-01-31 05:24:00,
2013-01-31 16:29:00,84.1,72.4,29.68,East,97,4.0,7.0,68,0.00,,,0.00,649,Wunderground v.1.15,2013-01-31 05:29:00,
2013-01-31 16:34:00,83.6,71.5,29.68,East,80,4.0,4.0,67,0.00,,,0.00,638,Wunderground v.1.15,2013-01-31 05:34:00,
2013-01-31 16:39:00,84.3,71.7,29.67,East,92,4.0,8.0,66,0.00,,,0.00,621,Wunderground v.1.15,2013-01-31 05:39:00,
2013-01-31 16:49:00,83.6,72.3,29.67,NNE,29,4.0,7.0,69,0.00,,,0.00,592,Wunderground v.1.15,2013-01-31 05:49:00,
2013-01-31 16:54:00,83.8,72.5,29.67,NE,34,4.0,4.0,69,0.00,,,0.00,575,Wunderground v.1.15,2013-01-31 05:54:00,
2013-01-31 16:59:00,83.3,71.6,29.67,East,90,4.0,4.0,68,0.00,,,0.00,559,Wunderground v.1.15,2013-01-31 05:59:00,
2013-01-31 17:09:00,82.7,71.9,29.67,East,79,5.0,7.0,70,0.00,,,0.00,524,Wunderground v.1.15,2013-01-31 06:09:00,
2013-01-31 17:14:00,83.2,72.4,29.66,ENE,63,5.0,8.0,70,0.00,,,0.00,506,Wunderground v.1.15,2013-01-31 06:14:00,
2013-01-31 17:24:00,82.9,72.1,29.66,NNE,28,6.0,6.0,70,0.00,,,0.00,473,Wunderground v.1.15,2013-01-31 06:24:00,
2013-01-31 17:29:00,82.7,72.3,29.66,NE,44,5.0,6.0,71,0.00,,,0.00,452,Wunderground v.1.15,2013-01-31 06:29:00,
2013-01-31 17:34:00,83.4,72.2,29.66,NNE,21,5.0,5.0,69,0.00,,,0.00,434,Wunderground v.1.15,2013-01-31 06:34:00,
2013-01-31 17:44:00,83.2,72.0,29.66,NE,47,4.0,4.0,69,0.00,,,0.00,397,Wunderground v.1.15,2013-01-31 06:44:00,
2013-01-31 17:49:00,83.2,72.8,29.65,East,80,5.0,13.0,71,0.00,,,0.00,383,Wunderground v.1.15,2013-01-31 06:49:00,
2013-01-31 17:54:00,83.3,72.1,29.65,ENE,76,4.0,8.0,69,0.00,,,0.00,364,Wunderground v.1.15,2013-01-31 06:54:00,
2013-01-31 18:04:00,83.1,71.9,29.65,NNE,32,5.0,5.0,69,0.00,,,0.00,332,Wunderground v.1.15,2013-01-31 07:04:00,
2013-01-31 18:14:00,82.0,71.7,29.65,East,96,7.0,7.0,71,0.00,,,0.00,295,Wunderground v.1.15,2013-01-31 07:14:00,
2013-01-31 18:19:00,82.1,71.8,29.65,NE,53,6.0,12.0,71,0.00,,,0.00,276,Wunderground v.1.15,2013-01-31 07:19:00,
2013-01-31 18:24:00,82.4,71.6,29.65,NNE,22,6.0,6.0,70,0.00,,,0.00,260,Wunderground v.1.15,2013-01-31 07:24:00,
2013-01-31 18:29:00,82.2,71.4,29.65,ENE,74,6.0,6.0,70,0.00,,,0.00,241,Wunderground v.1.15,2013-01-31 07:29:00,
2013-01-31 18:39:00,81.7,71.4,29.64,East,89,6.0,10.0,71,0.00,,,0.00,206,Wunderground v.1.15,2013-01-31 07:39:00,
2013-01-31 18:44:00,81.6,71.7,29.64,East,80,6.0,6.0,72,0.00,,,0.00,190,Wunderground v.1.15,2013-01-31 07:44:00,
2013-01-31 18:49:00,81.9,71.6,29.65,ENE,61,4.0,8.0,71,0.00,,,0.00,169,Wunderground v.1.15,2013-01-31 07:49:00,
2013-01-31 18:59:00,80.8,71.3,29.64,East,99,6.0,6.0,73,0.00,,,0.00,135,Wunderground v.1.15,2013-01-31 07:59:00,
2013-01-31 19:04:00,80.4,71.3,29.65,North,11,5.0,5.0,74,0.00,,,0.00,114,Wunderground v.1.15,2013-01-31 08:04:00,
2013-01-31 19:14:00,80.0,71.0,29.64,ENE,64,7.0,7.0,74,0.00,,,0.00,81,Wunderground v.1.15,2013-01-31 08:14:00,
2013-01-31 19:19:00,79.8,71.2,29.65,SSE,147,6.0,7.0,75,0.00,,,0.00,65,Wunderground v.1.15,2013-01-31 08:19:00,
2013-01-31 19:24:00,79.6,71.0,29.65,East,90,6.0,6.0,75,0.00,,,0.00,51,Wunderground v.1.15,2013-01-31 08:24:00,
2013-01-31 19:34:00,79.3,71.1,29.64,NNE,30,5.0,5.0,76,0.00,,,0.00,30,Wunderground v.1.15,2013-01-31 08:34:00,
2013-01-31 19:39:00,79.1,70.9,29.65,ENE,61,4.0,8.0,76,0.00,,,0.00,21,Wunderground v.1.15,2013-01-31 08:39:00,
2013-01-31 19:44:00,78.9,71.1,29.65,NNE,26,4.0,5.0,77,0.00,,,0.00,14,Wunderground v.1.15,2013-01-31 08:44:00,
2013-01-31 19:49:00,78.7,70.9,29.65,East,91,5.0,7.0,77,0.00,,,0.00,11,Wunderground v.1.15,2013-01-31 08:49:00,
2013-01-31 19:59:00,78.2,70.8,29.65,NNE,33,5.0,5.0,78,0.00,,,0.00,0,Wunderground v.1.15,2013-01-31 08:59:00,
2013-01-31 20:09:00,77.8,70.8,29.65,ENE,75,5.0,5.0,79,0.00,,,0.00,0,Wunderground v.1.15,2013-01-31 09:09:00,
2013-01-31 20:14:00,77.7,70.7,29.65,NE,51,5.0,11.0,79,0.00,,,0.00,0,Wunderground v.1.15,2013-01-31 09:14:00,
2013-01-31 20:19:00,77.5,70.8,29.65,ENE,72,5.0,11.0,80,0.00,,,0.00,0,Wunderground v.1.15,2013-01-31 09:19:00,
2013-01-31 20:24:00,77.4,70.7,29.65,NE,46,4.0,10.0,80,0.00,,,0.00,0,Wunderground v.1.15,2013-01-31 09:24:00,
2013-01-31 20:34:00,77.3,70.6,29.65,NNE,22,5.0,5.0,80,0.00,,,0.00,0,Wunderground v.1.15,2013-01-31 09:34:00,
2013-01-31 20:39:00,77.2,70.9,29.65,ENE,78,4.0,5.0,81,0.00,,,0.00,0,Wunderground v.1.15,2013-01-31 09:39:00,
2013-01-31 20:44:00,77.2,70.9,29.65,ENE,74,3.0,3.0,81,0.00,,,0.00,0,Wunderground v.1.15,2013-01-31 09:44:00,
2013-01-31 20:49:00,77.1,70.8,29.65,NE,53,3.0,6.0,81,0.00,,,0.00,0,Wunderground v.1.15,2013-01-31 09:49:00,
2013-01-31 20:59:00,77.0,70.7,29.65,ENE,62,3.0,4.0,81,0.00,,,0.00,0,Wunderground v.1.15,2013-01-31 09:59:00,
2013-01-31 21:09:00,76.9,71.0,29.65,North,360,3.0,3.0,82,0.00,,,0.00,0,Wunderground v.1.15,2013-01-31 10:09:00,
2013-01-31 21:14:00,76.8,70.9,29.65,NE,51,3.0,3.0,82,0.00,,,0.00,0,Wunderground v.1.15,2013-01-31 10:14:00,
2013-01-31 21:19:00,76.8,70.9,29.65,ENE,63,3.0,4.0,82,0.00,,,0.00,0,Wunderground v.1.15,2013-01-31 10:19:00,
2013-01-31 21:29:00,76.7,70.8,29.65,NE,35,4.0,5.0,82,0.00,,,0.00,0,Wunderground v.1.15,2013-01-31 10:29:00,
2013-01-31 21:34:00,76.6,71.0,29.65,ENE,66,4.0,4.0,83,0.00,,,0.00,0,Wunderground v.1.15,2013-01-31 10:34:00,
2013-01-31 21:39:00,76.6,71.0,29.65,NNE,20,4.0,4.0,83,0.00,,,0.00,0,Wunderground v.1.15,2013-01-31 10:39:00,
2013-01-31 21:44:00,76.5,70.9,29.65,ENE,66,4.0,4.0,83,0.00,,,0.00,0,Wunderground v.1.15,2013-01-31 10:44:00,
2013-01-31 21:54:00,76.3,71.1,29.64,NE,42,4.0,4.0,84,0.00,,,0.00,0,Wunderground v.1.15,2013-01-31 10:54:00,
2013-01-31 21:59:00,76.2,71.0,29.64,East,95,4.0,5.0,84,0.00,,,0.00,0,Wunderground v.1.15,2013-01-31 10:59:00,
2013-01-31 22:09:00,76.1,70.9,29.65,NNE,30,3.0,3.0,84,0.00,,,0.00,0,Wunderground v.1.15,2013-01-31 11:09:00,
2013-01-31 22:14:00,76.0,71.2,29.65,ENE,67,4.0,5.0,85,0.00,,,0.00,0,Wunderground v.1.15,2013-01-31 11:14:00,
2013-01-31 22:19:00,76.0,71.2,29.65,NE,46,3.0,5.0,85,0.00,,,0.00,0,Wunderground v.1.15,2013-01-31 11:19:00,
2013-01-31 22:29:00,75.9,71.1,29.64,North,5,4.0,4.0,85,0.00,,,0.00,0,Wunderground v.1.15,2013-01-31 11:29:00,
2013-01-31 22:34:00,75.8,71.0,29.64,ENE,77,4.0,4.0,85,0.00,,,0.00,0,Wunderground v.1.15,2013-01-31 11:34:00,
2013-01-31 22:39:00,75.7,70.9,29.64,NE,39,4.0,4.0,85,0.00,,,0.00,0,Wunderground v.1.15,2013-01-31 11:39:00,
2013-01-31 22:44:00,75.7,71.2,29.65,NNE,25,4.0,4.0,86,0.00,,,0.00,0,Wunderground v.1.15,2013-01-31 11:44:00,
2013-01-31 22:54:00,75.5,71.0,29.64,NE,49,3.0,3.0,86,0.00,,,0.00,0,Wunderground v.1.15,2013-01-31 11:54:00,
2013-01-31 22:59:00,75.5,71.0,29.64,NNE,25,3.0,3.0,86,0.00,,,0.00,0,Wunderground v.1.15,2013-01-31 11:59:00,
2013-01-31 23:09:00,75.3,70.8,29.64,North,9,3.0,3.0,86,0.00,,,0.00,0,Wunderground v.1.15,2013-01-31 12:09:00,
2013-01-31 23:14:00,75.2,70.7,29.64,NE,42,2.0,2.0,86,0.00,,,0.00,0,Wunderground v.1.15,2013-01-31 12:14:00,
2013-01-31 23:24:00,75.1,71.0,29.63,NNE,15,2.0,3.0,87,0.00,,,0.00,0,Wunderground v.1.15,2013-01-31 12:24:00,
2013-01-31 23:29:00,75.1,71.0,29.63,NE,34,3.0,4.0,87,0.00,,,0.00,0,Wunderground v.1.15,2013-01-31 12:29:00,
2013-01-31 23:34:00,75.0,70.9,29.63,NNE,24,3.0,3.0,87,0.00,,,0.00,0,Wunderground v.1.15,2013-01-31 12:34:00,
2013-01-31 23:44:00,74.9,70.8,29.63,NE,47,3.0,3.0,87,0.00,,,0.00,0,Wunderground v.1.15,2013-01-31 12:44:00,
2013-01-31 23:49:00,74.9,70.8,29.63,ENE,76,3.0,3.0,87,0.00,,,0.00,0,Wunderground v.1.15,2013-01-31 12:49:00,
2013-01-31 23:54:00,74.8,70.7,29.63,NE,49,2.0,2.0,87,0.00,,,0.00,0,Wunderground v.1.15,2013-01-31 12:54:00,
2013-01-31 23:59:00,74.8,71.0,29.63,East,82,2.0,2.0,88,0.00,,,0.00,0,Wunderground v.1.15,2013-01-31 12:59:00,